createdAt,value
2023-03-06T00:06:10.922Z,5.99
2023-03-06T00:09:15.048Z,6.01
2023-03-06T00:12:21.782Z,5.80
2023-03-06T00:15:27.980Z,5.51
2023-03-06T00:18:34.051Z,5.92
2023-03-06T00:21:45.701Z,6.14
2023-03-06T00:24:49.864Z,6.23
2023-03-06T00:27:54.159Z,5.73
2023-03-06T00:30:58.641Z,5.53
2023-03-06T00:34:02.456Z,5.56
2023-03-06T00:37:06.518Z,5.13
2023-03-06T00:43:30.860Z,4.93
2023-03-06T00:46:34.560Z,5.13
2023-03-06T00:49:38.970Z,5.43
2023-03-06T00:52:43.717Z,5.64
2023-03-06T00:55:50.647Z,5.89
2023-03-06T00:58:59.232Z,5.78
2023-03-06T01:05:27.598Z,5.56
2023-03-06T01:08:31.830Z,5.46
2023-03-06T01:11:35.630Z,5.69
2023-03-06T01:14:40.012Z,5.68
2023-03-06T01:17:45.209Z,5.90
2023-03-06T01:24:26.069Z,5.61
2023-03-06T01:27:30.491Z,5.42
2023-03-06T01:33:56.569Z,5.06
2023-03-06T01:37:01.826Z,4.55
2023-03-06T01:40:05.725Z,4.54
2023-03-06T01:43:10.410Z,4.84
2023-03-06T01:46:14.516Z,4.89
2023-03-06T01:49:18.714Z,4.45
2023-03-06T01:52:27.008Z,4.31
2023-03-06T01:55:34.545Z,4.41
2023-03-06T02:02:04.003Z,4.45
2023-03-06T02:05:15.760Z,4.39
2023-03-06T02:08:20.937Z,4.55
2023-03-06T02:11:33.216Z,4.36
2023-03-06T02:14:37.491Z,3.90
2023-03-06T02:17:50.759Z,4.04
2023-03-06T02:20:56.389Z,3.83
2023-03-06T02:24:00.419Z,4.04
2023-03-06T02:27:11.898Z,3.95
2023-03-06T02:30:16.135Z,4.21
2023-03-06T02:33:20.293Z,4.23
2023-03-06T02:36:24.552Z,4.66
2023-03-06T02:39:40.426Z,4.81
2023-03-06T02:42:44.791Z,5.18
2023-03-06T02:45:49.664Z,5.28
2023-03-06T02:48:55.558Z,4.47
2023-03-06T02:52:01.161Z,4.53
2023-03-06T02:55:05.414Z,4.33
2023-03-06T02:58:10.741Z,4.79
2023-03-06T03:01:16.305Z,4.91
2023-03-06T03:04:24.132Z,4.92
2023-03-06T03:07:28.245Z,4.54
2023-03-06T03:10:32.342Z,4.20
2023-03-06T03:13:40.030Z,4.08
2023-03-06T03:16:44.357Z,3.85
2023-03-06T03:19:49.620Z,3.95
2023-03-06T03:23:02.510Z,3.84
2023-03-06T03:26:07.985Z,3.89
2023-03-06T03:29:14.542Z,4.01
2023-03-06T03:32:31.782Z,4.17
2023-03-06T03:35:39.555Z,4.22
2023-03-06T03:39:08.560Z,4.72
2023-03-06T03:42:14.491Z,5.00
2023-03-06T03:45:20.454Z,4.81
2023-03-06T03:51:40.894Z,3.87
2023-03-06T03:54:46.562Z,3.85
2023-03-06T03:57:52.276Z,3.68
2023-03-06T04:04:08.907Z,4.02
2023-03-06T04:10:51.238Z,4.72
2023-03-06T04:13:59.974Z,4.33
2023-03-06T04:17:05.320Z,4.08
2023-03-06T04:20:09.353Z,3.89
2023-03-06T04:26:37.465Z,3.55
2023-03-06T04:29:41.767Z,3.70
2023-03-06T04:36:09.860Z,3.28
2023-03-06T04:39:14.468Z,3.88
2023-03-06T04:42:21.388Z,3.74
2023-03-06T04:45:26.065Z,3.97
2023-03-06T04:48:29.988Z,4.24
2023-03-06T04:51:36.874Z,4.43
2023-03-06T04:54:46.473Z,3.61
2023-03-06T04:57:50.811Z,3.52
2023-03-06T05:00:55.266Z,3.39
2023-03-06T05:04:06.733Z,3.39
2023-03-06T05:07:12.819Z,3.41
2023-03-06T05:10:19.521Z,3.33
2023-03-06T05:13:23.880Z,3.64
2023-03-06T05:16:28.081Z,4.04
2023-03-06T05:19:37.450Z,3.74
2023-03-06T05:26:09.932Z,3.63
2023-03-06T05:29:14.651Z,3.56
2023-03-06T05:35:42.921Z,3.58
2023-03-06T05:38:51.362Z,3.46
2023-03-06T05:41:56.177Z,3.80
2023-03-06T05:48:48.937Z,3.86
2023-03-06T05:51:54.785Z,3.66
2023-03-06T05:55:02.494Z,3.42
2023-03-06T05:58:06.813Z,3.63
2023-03-06T06:01:10.966Z,3.84
2023-03-06T06:04:14.860Z,3.82
2023-03-06T06:07:18.718Z,3.53
2023-03-06T06:10:22.673Z,3.17
2023-03-06T06:13:34.510Z,3.28
2023-03-06T06:16:38.824Z,3.92
2023-03-06T06:19:42.770Z,4.42
2023-03-06T06:22:46.946Z,4.07
2023-03-06T06:25:51.004Z,3.96
2023-03-06T06:28:55.321Z,3.56
2023-03-06T06:32:03.499Z,3.60
2023-03-06T06:35:18.962Z,3.99
2023-03-06T06:38:25.406Z,4.08
2023-03-06T06:41:53.671Z,4.11
2023-03-06T06:45:48.376Z,4.14
2023-03-06T06:54:42.393Z,4.29
2023-03-06T07:01:15.299Z,4.95
2023-03-06T07:07:41.958Z,5.44
2023-03-06T07:10:46.425Z,5.70
2023-03-06T07:13:50.734Z,5.80
2023-03-06T07:16:55.649Z,6.16
2023-03-06T07:20:01.766Z,6.22
2023-03-06T07:23:05.811Z,6.38
2023-03-06T07:26:10.702Z,6.36
2023-03-06T07:29:15.076Z,6.10
2023-03-06T07:32:20.935Z,6.07
2023-03-06T07:35:24.809Z,6.60
2023-03-06T07:38:28.818Z,6.47
2023-03-06T07:41:32.914Z,6.42
2023-03-06T07:44:37.127Z,5.99
2023-03-06T07:47:41.745Z,6.26
2023-03-06T07:50:45.769Z,6.58
2023-03-06T07:53:50.480Z,6.44
2023-03-06T07:56:55.788Z,6.93
2023-03-06T07:59:59.948Z,6.57
2023-03-06T08:03:05.643Z,7.08
2023-03-06T08:06:09.818Z,7.18
2023-03-06T08:09:13.550Z,7.14
2023-03-06T08:12:18.719Z,7.22
2023-03-06T08:15:23.024Z,7.25
2023-03-06T08:18:32.726Z,7.12
2023-03-06T08:21:38.234Z,7.30
2023-03-06T08:24:42.629Z,7.21
2023-03-06T08:27:46.594Z,6.90
2023-03-06T08:30:51.812Z,7.25
2023-03-06T08:33:56.044Z,7.57
2023-03-06T08:37:00.110Z,7.79
2023-03-06T08:40:06.308Z,7.26
2023-03-06T08:43:11.829Z,7.84
2023-03-06T08:46:17.566Z,7.89
2023-03-06T08:49:21.379Z,7.99
2023-03-06T08:52:25.308Z,8.44
2023-03-06T08:55:29.860Z,8.16
2023-03-06T08:58:34.036Z,7.85
2023-03-06T09:01:38.143Z,8.34
2023-03-06T09:04:42.235Z,8.49
2023-03-06T09:07:45.972Z,8.77
2023-03-06T09:10:50.582Z,8.89
2023-03-06T09:13:55.335Z,8.87
2023-03-06T09:16:59.118Z,8.66
2023-03-06T09:20:03.414Z,8.55
2023-03-06T09:23:07.715Z,8.34
2023-03-06T09:26:12.231Z,8.20
2023-03-06T09:29:16.410Z,8.71
2023-03-06T09:32:20.738Z,8.02
2023-03-06T09:35:24.612Z,8.61
2023-03-06T09:38:29.179Z,8.45
2023-03-06T09:41:33.494Z,8.46
2023-03-06T09:44:37.368Z,8.52
2023-03-06T09:47:41.262Z,8.57
2023-03-06T09:50:45.269Z,8.65
2023-03-06T09:53:49.776Z,8.51
2023-03-06T09:56:58.636Z,8.42
2023-03-06T10:00:04.495Z,8.67
2023-03-06T10:03:11.013Z,8.73
2023-03-06T10:06:15.211Z,8.89
2023-03-06T10:09:20.060Z,8.85
2023-03-06T10:12:25.202Z,8.84
2023-03-06T10:15:29.462Z,9.00
2023-03-06T10:18:34.525Z,9.08
2023-03-06T10:21:38.851Z,9.01
2023-03-06T10:24:42.803Z,8.80
2023-03-06T10:27:47.916Z,8.69
2023-03-06T10:30:51.980Z,8.85
2023-03-06T10:33:56.078Z,8.98
2023-03-06T10:37:00.140Z,8.90
2023-03-06T10:40:03.867Z,8.81
2023-03-06T10:43:11.785Z,9.02
2023-03-06T10:46:17.280Z,8.62
2023-03-06T10:49:22.486Z,8.98
2023-03-06T10:52:26.885Z,8.96
2023-03-06T10:55:31.206Z,9.02
2023-03-06T10:58:35.278Z,9.02
2023-03-06T11:01:39.202Z,9.17
2023-03-06T11:04:43.117Z,9.26
2023-03-06T11:07:47.396Z,9.00
2023-03-06T11:10:51.596Z,9.21
2023-03-06T11:13:55.686Z,9.12
2023-03-06T11:16:59.629Z,9.23
2023-03-06T11:20:04.025Z,9.55
2023-03-06T11:23:08.085Z,9.38
2023-03-06T11:26:12.182Z,9.58
2023-03-06T11:29:16.179Z,9.76
2023-03-06T11:32:19.968Z,9.50
2023-03-06T11:35:23.939Z,9.18
2023-03-06T11:38:28.351Z,9.62
2023-03-06T11:41:32.385Z,9.88
2023-03-06T11:44:36.229Z,9.70
2023-03-06T11:47:40.146Z,9.69
2023-03-06T11:50:44.372Z,10.22
2023-03-06T11:53:48.676Z,9.85
2023-03-06T11:56:52.955Z,9.92
2023-03-06T11:59:56.869Z,10.29
2023-03-06T12:03:00.712Z,10.37
2023-03-06T12:06:05.136Z,10.34
2023-03-06T12:09:09.133Z,10.49
2023-03-06T12:12:13.063Z,10.43
2023-03-06T12:15:16.943Z,10.52
2023-03-06T12:18:20.766Z,10.17
2023-03-06T12:21:24.891Z,10.29
2023-03-06T12:24:28.856Z,10.52
2023-03-06T12:27:32.628Z,10.28
2023-03-06T12:30:36.754Z,9.86
2023-03-06T12:33:40.983Z,10.41
2023-03-06T12:36:45.236Z,10.00
2023-03-06T12:39:51.433Z,10.27
2023-03-06T12:42:55.532Z,10.50
2023-03-06T12:45:59.441Z,10.65
2023-03-06T12:49:03.415Z,10.80
2023-03-06T12:52:07.374Z,10.61
2023-03-06T12:55:11.194Z,10.68
2023-03-06T12:58:15.272Z,10.68
2023-03-06T13:01:19.595Z,10.70
2023-03-06T13:04:23.675Z,10.98
2023-03-06T13:07:27.814Z,10.93
2023-03-06T13:10:31.682Z,10.85
2023-03-06T13:13:35.607Z,10.82
2023-03-06T13:16:39.758Z,10.72
2023-03-06T13:19:43.748Z,10.86
2023-03-06T13:22:51.261Z,11.17
2023-03-06T13:25:55.130Z,10.76
2023-03-06T13:28:58.966Z,10.96
2023-03-06T13:32:02.932Z,11.02
2023-03-06T13:35:07.455Z,10.85
2023-03-06T13:38:11.475Z,10.89
2023-03-06T13:41:15.399Z,10.75
2023-03-06T13:44:19.431Z,10.65
2023-03-06T13:47:23.463Z,10.83
2023-03-06T13:50:27.773Z,11.24
2023-03-06T13:53:32.835Z,11.32
2023-03-06T13:56:36.731Z,11.52
2023-03-06T13:59:40.677Z,11.49
2023-03-06T14:02:44.804Z,10.92
2023-03-06T14:05:48.825Z,11.36
2023-03-06T14:08:53.150Z,11.63
2023-03-06T14:11:57.082Z,11.80
2023-03-06T14:15:03.281Z,11.75
2023-03-06T14:18:07.154Z,11.81
2023-03-06T14:21:11.093Z,11.76
2023-03-06T14:24:15.111Z,11.93
2023-03-06T14:27:19.048Z,11.72
2023-03-06T14:30:25.281Z,11.84
2023-03-06T14:33:32.601Z,11.76
2023-03-06T14:36:36.405Z,11.71
2023-03-06T14:39:40.555Z,11.74
2023-03-06T14:42:44.685Z,11.53
2023-03-06T14:45:48.651Z,11.76
2023-03-06T14:48:52.922Z,11.98
2023-03-06T14:51:57.228Z,11.76
2023-03-06T14:55:01.424Z,11.73
2023-03-06T14:58:05.339Z,11.53
2023-03-06T15:01:09.311Z,11.96
2023-03-06T15:04:13.722Z,12.16
2023-03-06T15:07:17.748Z,12.15
2023-03-06T15:10:22.328Z,12.31
2023-03-06T15:13:26.168Z,12.37
2023-03-06T15:16:31.421Z,12.40
2023-03-06T15:19:35.787Z,12.37
2023-03-06T15:22:39.729Z,12.24
2023-03-06T15:25:43.710Z,12.39
2023-03-06T15:28:47.632Z,12.16
2023-03-06T15:31:52.674Z,12.07
2023-03-06T15:34:56.777Z,11.83
2023-03-06T15:38:00.891Z,11.89
2023-03-06T15:41:05.070Z,12.09
2023-03-06T15:44:08.921Z,12.20
2023-03-06T15:47:13.029Z,12.32
2023-03-06T15:50:19.713Z,12.08
2023-03-06T15:53:23.952Z,12.00
2023-03-06T15:56:28.160Z,12.28
2023-03-06T15:59:31.774Z,12.41
2023-03-06T16:02:35.946Z,12.40
2023-03-06T16:05:39.835Z,12.39
2023-03-06T16:08:43.764Z,12.32
2023-03-06T16:11:47.928Z,12.20
2023-03-06T16:14:53.354Z,12.26
2023-03-06T16:17:57.583Z,12.29
2023-03-06T16:21:02.521Z,12.22
2023-03-06T16:24:06.418Z,12.08
2023-03-06T16:27:10.625Z,11.84
2023-03-06T16:30:14.937Z,11.87
2023-03-06T16:33:18.870Z,11.69
2023-03-06T16:36:23.160Z,11.65
2023-03-06T16:39:27.429Z,11.84
2023-03-06T16:42:31.385Z,11.68
2023-03-06T16:45:35.689Z,11.74
2023-03-06T16:48:39.558Z,11.66
2023-03-06T16:51:44.131Z,11.59
2023-03-06T16:54:49.256Z,11.38
2023-03-06T16:57:53.612Z,11.37
2023-03-06T17:00:57.616Z,11.22
2023-03-06T17:04:01.677Z,11.10
2023-03-06T17:07:05.965Z,11.25
2023-03-06T17:10:09.822Z,11.20
2023-03-06T17:13:13.463Z,11.02
2023-03-06T17:16:17.324Z,10.88
2023-03-06T17:19:24.429Z,10.87
2023-03-06T17:22:28.176Z,10.73
2023-03-06T17:25:32.377Z,10.73
2023-03-06T17:28:36.299Z,10.61
2023-03-06T17:31:40.382Z,9.81
2023-03-06T17:34:44.359Z,10.14
2023-03-06T17:37:48.931Z,10.17
2023-03-06T17:40:52.820Z,10.00
2023-03-06T17:43:57.719Z,9.87
2023-03-06T17:47:01.822Z,9.84
2023-03-06T17:50:05.942Z,9.86
2023-03-06T17:53:10.121Z,9.79
2023-03-06T17:56:14.002Z,9.83
2023-03-06T17:59:17.861Z,9.70
2023-03-06T18:02:21.687Z,9.55
2023-03-06T18:05:25.863Z,9.54
2023-03-06T18:08:30.101Z,9.24
2023-03-06T18:11:38.438Z,9.06
2023-03-06T18:14:43.930Z,9.34
2023-03-06T18:17:47.797Z,9.20
2023-03-06T18:20:51.947Z,8.94
2023-03-06T18:23:56.196Z,9.31
2023-03-06T18:27:00.507Z,9.34
2023-03-06T18:30:04.783Z,9.43
2023-03-06T18:36:30.703Z,9.39
2023-03-06T18:39:34.478Z,8.97
2023-03-06T18:42:38.284Z,9.11
2023-03-06T18:45:42.565Z,9.02
2023-03-06T18:48:46.589Z,8.62
2023-03-06T18:51:51.073Z,8.93
2023-03-06T18:54:55.412Z,8.83
2023-03-06T18:57:59.709Z,8.81
2023-03-06T19:01:03.993Z,8.53
2023-03-06T19:04:07.840Z,8.38
2023-03-06T19:07:11.711Z,8.90
2023-03-06T19:10:16.144Z,8.18
2023-03-06T19:13:19.964Z,7.95
2023-03-06T19:16:24.203Z,8.25
2023-03-06T19:19:29.349Z,8.32
2023-03-06T19:22:33.141Z,7.90
2023-03-06T19:25:37.287Z,7.80
2023-03-06T19:28:41.655Z,7.50
2023-03-06T19:31:45.738Z,8.03
2023-03-06T19:34:51.070Z,8.29
2023-03-06T19:37:54.941Z,7.94
2023-03-06T19:40:58.886Z,8.03
2023-03-06T19:44:03.348Z,7.81
2023-03-06T19:47:07.191Z,7.77
2023-03-06T19:50:11.000Z,7.83
2023-03-06T19:53:15.453Z,8.01
2023-03-06T19:56:19.841Z,8.01
2023-03-06T19:59:23.782Z,8.02
2023-03-06T20:02:27.553Z,7.55
2023-03-06T20:05:33.253Z,7.81
2023-03-06T20:08:37.350Z,7.41
2023-03-06T20:15:04.012Z,7.57
2023-03-06T20:18:08.432Z,7.17
2023-03-06T20:21:12.410Z,6.99
2023-03-06T20:24:16.739Z,6.84
2023-03-06T20:27:20.871Z,6.75
2023-03-06T20:30:26.442Z,6.70
2023-03-06T20:33:33.615Z,6.71
2023-03-06T20:36:37.739Z,7.29
2023-03-06T20:39:41.815Z,7.18
2023-03-06T20:42:47.456Z,7.22
2023-03-06T20:45:51.431Z,7.38
2023-03-06T20:48:55.789Z,7.05
2023-03-06T20:52:00.101Z,6.92
2023-03-06T20:55:04.188Z,7.15
2023-03-06T20:58:08.279Z,6.86
2023-03-06T21:01:12.168Z,6.99
2023-03-06T21:04:16.496Z,6.77
2023-03-06T21:07:31.612Z,7.12
2023-03-06T21:10:37.842Z,7.21
2023-03-06T21:13:41.990Z,7.27
2023-03-06T21:16:45.916Z,7.39
2023-03-06T21:19:49.887Z,7.29
2023-03-06T21:22:53.663Z,6.84
2023-03-06T21:25:58.044Z,6.70
2023-03-06T21:29:02.076Z,7.05
2023-03-06T21:32:06.036Z,6.92
2023-03-06T21:35:10.125Z,6.99
2023-03-06T21:38:14.113Z,7.30
2023-03-06T21:41:18.476Z,7.44
2023-03-06T21:44:22.355Z,7.39
2023-03-06T21:47:26.505Z,7.47
2023-03-06T21:53:53.166Z,6.87
2023-03-06T21:56:57.607Z,6.72
2023-03-06T22:00:01.790Z,6.17
2023-03-06T22:03:06.036Z,6.13
2023-03-06T22:09:31.821Z,6.52
2023-03-06T22:12:35.961Z,6.68
2023-03-06T22:15:40.090Z,6.99
2023-03-06T22:18:44.126Z,6.76
2023-03-06T22:21:48.098Z,6.39
2023-03-06T22:24:51.976Z,6.40
2023-03-06T22:27:56.049Z,6.69
2023-03-06T22:31:00.117Z,6.44
2023-03-06T22:34:04.048Z,6.81
2023-03-06T22:37:07.772Z,7.09
2023-03-06T22:40:12.986Z,6.72
2023-03-06T22:43:17.004Z,6.99
2023-03-06T22:46:20.626Z,6.61
2023-03-06T22:49:24.646Z,6.40
2023-03-06T22:52:28.660Z,6.78
2023-03-06T22:55:32.476Z,7.11
2023-03-06T22:58:39.513Z,7.36
2023-03-06T23:01:43.669Z,7.33
2023-03-06T23:04:47.841Z,6.76
2023-03-06T23:07:51.632Z,6.34
2023-03-06T23:10:55.627Z,6.63
2023-03-06T23:13:59.961Z,6.65
2023-03-06T23:17:04.091Z,7.03
2023-03-06T23:20:07.981Z,6.79
2023-03-06T23:23:12.257Z,6.47
2023-03-06T23:26:16.175Z,6.70
2023-03-06T23:29:20.448Z,6.93
2023-03-06T23:32:24.408Z,6.99
2023-03-06T23:35:28.418Z,6.97
2023-03-06T23:38:32.547Z,7.12
2023-03-06T23:41:36.695Z,6.89
2023-03-06T23:44:41.001Z,7.12
2023-03-06T23:47:44.906Z,7.46
2023-03-06T23:50:50.662Z,7.07
2023-03-06T23:53:54.858Z,7.09
2023-03-06T23:56:58.797Z,7.12
